Time;durP1;ratioP1;P1;durP2;ratioP2;P2;SDS_P1;SDS_P2;PMS_P1;PMS_P2;Temp;Humidity;BMP_temperature;BMP_pressure;BME280_temperature;BME280_humidity;BME280_pressure;Samples;Min_cycle;Max_cycle;Signal;HPM_P1;HPM_P2
2023/10/10 00:00:48;;;;;;;18.10;7.18;;;15.80;58.60;;;;;;6224360;28;20050;-78
2023/10/10 00:03:50;;;;;;;14.40;6.70;;;15.80;60.80;;;;;;6201779;28;20060;-77
2023/10/10 00:06:52;;;;;;;14.27;7.35;;;15.80;59.80;;;;;;6249049;28;20508;-78
2023/10/10 00:09:56;;;;;;;16.20;6.97;;;15.70;59.80;;;;;;6225837;28;20050;-78
2023/10/10 00:13:00;;;;;;;13.93;6.50;;;15.70;60.10;;;;;;6240546;28;20053;-77
2023/10/10 00:16:05;;;;;;;13.98;6.68;;;15.60;59.80;;;;;;6225898;28;20060;-78
2023/10/10 00:19:43;;;;;;;12.25;6.45;;;15.60;57.00;;;;;;6250097;28;20053;-78
2023/10/10 00:22:36;;;;;;;12.60;6.13;;;15.50;58.90;;;;;;6200379;28;20062;-78
2023/10/10 00:25:38;;;;;;;13.32;6.80;;;15.50;59.70;;;;;;6249696;28;20061;-77
2023/10/10 00:28:41;;;;;;;16.58;6.90;;;15.40;62.40;;;;;;6234317;28;20056;-77
2023/10/10 00:31:47;;;;;;;15.20;6.18;;;15.30;61.00;;;;;;6223716;28;20054;-77
2023/10/10 00:34:49;;;;;;;13.10;5.97;;;15.30;61.40;;;;;;6200896;28;20046;-78
2023/10/10 00:37:51;;;;;;;14.85;5.95;;;15.30;61.20;;;;;;6249034;28;20424;-78
2023/10/10 00:40:54;;;;;;;13.73;6.30;;;15.20;61.10;;;;;;6225293;28;20093;-78
2023/10/10 00:43:56;;;;;;;13.23;6.25;;;15.10;60.90;;;;;;6233931;28;20061;-77
2023/10/10 00:46:58;;;;;;;14.27;6.45;;;15.10;60.10;;;;;;6247898;28;20400;-78
2023/10/10 00:50:00;;;;;;;12.90;6.57;;;15.10;62.40;;;;;;6224793;28;20046;-78
2023/10/10 00:53:04;;;;;;;15.23;7.70;;;15.00;61.60;;;;;;6248657;28;20451;-79
2023/10/10 00:56:06;;;;;;;12.80;7.85;;;14.90;63.80;;;;;;6225134;28;20469;-78
2023/10/10 00:59:08;;;;;;;15.18;7.47;;;14.90;66.40;;;;;;6226004;28;20422;-77
2023/10/10 01:02:13;;;;;;;15.07;7.57;;;14.90;64.20;;;;;;6248131;28;20063;-78
2023/10/10 01:05:23;;;;;;;14.70;7.93;;;14.90;65.10;;;;;;6223168;28;20164;-78
2023/10/10 01:08:30;;;;;;;14.30;7.40;;;14.80;64.20;;;;;;6200053;28;20065;-78
2023/10/10 01:11:34;;;;;;;15.82;7.80;;;14.80;65.50;;;;;;6248213;28;20182;-78
2023/10/10 01:14:38;;;;;;;13.68;7.45;;;14.80;66.20;;;;;;6223791;28;20520;-78
2023/10/10 01:17:40;;;;;;;19.13;8.30;;;14.80;66.30;;;;;;6248444;28;20500;-78
2023/10/10 01:20:45;;;;;;;15.23;7.32;;;14.80;69.00;;;;;;6224410;28;20085;-78
2023/10/10 01:23:47;;;;;;;18.33;8.00;;;14.80;67.30;;;;;;6248046;28;20064;-78
2023/10/10 01:26:51;;;;;;;16.98;7.22;;;14.90;66.80;;;;;;6224396;28;20077;-78
2023/10/10 01:30:17;;;;;;;14.57;7.50;;;14.80;67.00;;;;;;6240998;28;20136;-78
2023/10/10 01:33:35;;;;;;;13.30;7.18;;;14.80;67.50;;;;;;6199310;28;20411;-78
2023/10/10 01:36:38;;;;;;;12.95;6.57;;;14.80;66.40;;;;;;6199630;28;20482;-79
2023/10/10 01:39:41;;;;;;;14.77;7.03;;;14.70;66.30;;;;;;6247635;28;20053;-78
2023/10/10 01:43:01;;;;;;;15.73;6.57;;;14.70;66.20;;;;;;6224088;28;20044;-78
2023/10/10 01:46:09;;;;;;;;;;;14.70;66.20;;;;;;6247068;28;20080;-78
2023/10/10 01:49:13;;;;;;;14.98;8.88;;;14.60;68.50;;;;;;6239100;28;20399;-78
2023/10/10 01:52:17;;;;;;;16.25;8.77;;;14.60;71.50;;;;;;6248241;28;20053;-79
2023/10/10 01:55:22;;;;;;;13.93;7.03;;;14.60;69.50;;;;;;6223884;28;20046;-79
2023/10/10 01:58:25;;;;;;;14.15;6.28;;;14.50;68.80;;;;;;6233965;28;20046;-78
2023/10/10 02:01:29;;;;;;;15.20;6.72;;;14.50;70.10;;;;;;6248220;28;20048;-80
2023/10/10 02:04:35;;;;;;;13.68;6.60;;;14.50;71.60;;;;;;6223282;28;20053;-78
2023/10/10 02:07:39;;;;;;;14.80;7.03;;;14.50;72.50;;;;;;6199116;28;20046;-77
2023/10/10 02:10:46;;;;;;;15.20;6.47;;;14.40;71.60;;;;;;6247452;28;20091;-78
2023/10/10 02:13:47;;;;;;;16.05;6.90;;;14.40;71.60;;;;;;6234071;28;20416;-78
2023/10/10 02:16:49;;;;;;;14.57;7.03;;;14.40;73.70;;;;;;6223910;28;20405;-78
2023/10/10 02:20:50;;;;;;;14.10;6.90;;;14.40;74.20;;;;;;6247531;28;20077;-77
2023/10/10 02:23:24;;;;;;;15.40;6.78;;;14.40;74.90;;;;;;6203145;28;20496;-78
2023/10/10 02:26:35;;;;;;;18.05;6.57;;;14.40;74.30;;;;;;6252229;28;20049;-78
2023/10/10 02:29:47;;;;;;;13.90;7.15;;;14.40;74.40;;;;;;6198809;28;20046;-78
2023/10/10 02:32:49;;;;;;;15.35;7.47;;;14.40;73.40;;;;;;6203545;28;20502;-78
2023/10/10 02:38:57;;;;;;;12.15;6.28;;;14.30;72.30;;;;;;6228471;28;20370;-78
2023/10/10 02:42:01;;;;;;;14.50;6.47;;;14.30;73.30;;;;;;6252170;28;20052;-78
2023/10/10 02:45:02;;;;;;;20.73;7.13;;;14.30;72.40;;;;;;6235266;28;20062;-78
2023/10/10 02:48:07;;;;;;;13.15;6.28;;;14.30;73.40;;;;;;6228665;28;20046;-78
2023/10/10 02:51:15;;;;;;;13.02;5.68;;;14.30;73.30;;;;;;6251789;28;20049;-78
2023/10/10 02:54:27;;;;;;;15.82;7.03;;;14.30;73.40;;;;;;6218620;28;20050;-77
2023/10/10 02:57:30;;;;;;;17.63;6.25;;;14.20;73.40;;;;;;6251154;28;20081;-78
2023/10/10 03:00:34;;;;;;;14.90;6.70;;;14.20;74.30;;;;;;6227524;28;20052;-79
2023/10/10 03:03:40;;;;;;;12.27;6.22;;;14.20;74.40;;;;;;6203344;28;20058;-78
2023/10/10 03:06:44;;;;;;;13.93;6.28;;;14.20;75.10;;;;;;6202986;28;20046;-78
2023/10/10 03:13:13;;;;;;;12.45;6.30;;;14.20;73.80;;;;;;6213417;28;20061;-79
2023/10/10 03:19:26;;;;;;;12.07;6.20;;;14.10;72.40;;;;;;6226736;28;20049;-79
2023/10/10 03:22:31;;;;;;;14.85;7.07;;;14.10;71.90;;;;;;6202922;28;20066;-79
2023/10/10 03:26:19;;;;;;;14.98;6.72;;;14.10;72.10;;;;;;6249925;28;20088;-79
2023/10/10 03:29:04;;;;;;;14.55;6.85;;;14.00;72.40;;;;;;6223487;28;20397;-79
2023/10/10 03:32:19;;;;;;;14.55;6.85;;;14.00;72.90;;;;;;6201649;28;20054;-79
2023/10/10 03:35:33;;;;;;;12.63;6.15;;;13.90;71.00;;;;;;6249396;28;20045;-79
2023/10/10 05:25:26;;;;;;;10.80;5.25;;;13.10;68.80;;;;;;6199474;28;20046;-80
2023/10/10 05:28:30;;;;;;;13.00;5.75;;;13.10;70.50;;;;;;6238116;28;20046;-79
2023/10/10 05:31:32;;;;;;;11.43;5.18;;;13.10;70.10;;;;;;6249145;28;20127;-80
2023/10/10 05:34:34;;;;;;;13.77;6.25;;;13.10;69.50;;;;;;6222873;28;20056;-80
2023/10/10 05:37:36;;;;;;;10.48;5.05;;;13.10;69.00;;;;;;6247702;28;20050;-79
2023/10/10 05:40:38;;;;;;;12.00;5.50;;;13.10;68.10;;;;;;6224248;28;20050;-79
2023/10/10 05:43:40;;;;;;;9.73;4.50;;;13.10;68.10;;;;;;6231320;28;20405;-78
2023/10/10 05:46:42;;;;;;;13.00;5.38;;;13.10;66.60;;;;;;6200144;28;20057;-78
2023/10/10 05:49:44;;;;;;;11.18;6.05;;;13.10;68.90;;;;;;6246101;28;20057;-79
2023/10/10 05:52:45;;;;;;;11.38;5.50;;;13.10;68.10;;;;;;6224172;28;20050;-78
2023/10/10 05:55:53;;;;;;;12.05;5.35;;;13.00;67.70;;;;;;6246935;28;20489;-78
2023/10/10 05:58:55;;;;;;;12.68;5.65;;;13.10;66.80;;;;;;6234676;28;20091;-79
2023/10/10 06:01:56;;;;;;;14.23;5.50;;;13.10;66.10;;;;;;6223506;28;20050;-80
2023/10/10 06:04:58;;;;;;;11.98;5.60;;;13.00;66.80;;;;;;6247006;28;20504;-80
2023/10/10 06:07:59;;;;;;;13.95;5.63;;;13.00;64.80;;;;;;6223430;28;20410;-79
2023/10/10 06:11:01;;;;;;;11.02;5.00;;;13.00;64.70;;;;;;6246904;28;20053;-79
2023/10/10 06:14:04;;;;;;;11.40;4.95;;;13.00;63.70;;;;;;6237024;28;20509;-80
2023/10/10 06:17:07;;;;;;;11.23;5.00;;;13.00;63.70;;;;;;6223393;28;20046;-81
2023/10/10 06:20:16;;;;;;;16.75;6.00;;;12.90;64.70;;;;;;6248039;28;20099;-80
2023/10/10 06:23:20;;;;;;;23.95;6.57;;;12.90;64.80;;;;;;6199197;28;20050;-80
2023/10/10 06:26:24;;;;;;;13.10;5.22;;;12.90;65.90;;;;;;6248291;28;20199;-78
2023/10/10 06:29:29;;;;;;;14.32;6.00;;;12.90;64.80;;;;;;6221093;28;20095;-78
2023/10/10 06:32:31;;;;;;;14.10;5.57;;;12.90;64.80;;;;;;6247492;28;20191;-80
2023/10/10 06:35:36;;;;;;;16.15;5.80;;;13.00;66.70;;;;;;6223529;28;20042;-83
2023/10/10 06:38:41;;;;;;;16.65;5.90;;;12.90;65.90;;;;;;6198758;28;20058;-82
2023/10/10 06:41:47;;;;;;;18.45;6.60;;;13.00;65.70;;;;;;6247652;28;20045;-82
2023/10/10 06:44:48;;;;;;;15.30;5.40;;;13.10;66.60;;;;;;6216390;28;20061;-81
2023/10/10 06:47:51;;;;;;;12.40;5.43;;;13.20;65.60;;;;;;6224868;28;20085;-81
2023/10/10 06:50:53;;;;;;;23.90;5.47;;;13.20;65.00;;;;;;6247726;28;20053;-81
2023/10/10 06:53:56;;;;;;;14.13;5.45;;;13.30;66.20;;;;;;6223672;28;20061;-80
2023/10/10 07:00:06;;;;;;;26.85;5.82;;;13.40;65.10;;;;;;6220277;28;20052;-79
2023/10/10 07:03:07;;;;;;;17.63;5.60;;;13.50;65.90;;;;;;6247558;28;20402;-79
2023/10/10 07:06:09;;;;;;;25.13;5.70;;;13.60;65.30;;;;;;6223512;28;20050;-80
2023/10/10 07:09:29;;;;;;;15.80;4.90;;;13.70;64.80;;;;;;6249872;28;20050;-79
2023/10/10 07:12:31;;;;;;;20.45;5.47;;;13.70;65.40;;;;;;6228266;28;20050;-79
2023/10/10 07:15:34;;;;;;;17.17;5.50;;;13.80;65.50;;;;;;6249397;28;20053;-79
2023/10/10 07:18:40;;;;;;;19.65;6.28;;;13.80;65.50;;;;;;6202554;28;20054;-79
2023/10/10 07:21:45;;;;;;;18.38;5.88;;;13.90;65.50;;;;;;6216473;28;20086;-80
2023/10/10 07:24:46;;;;;;;17.60;7.35;;;14.20;65.80;;;;;;6250034;28;20049;-80
2023/10/10 07:27:48;;;;;;;17.25;7.65;;;14.40;67.40;;;;;;6223500;28;20109;-80
2023/10/10 07:30:50;;;;;;;18.80;8.05;;;15.00;67.40;;;;;;6250908;28;20049;-80
2023/10/10 07:34:15;;;;;;;17.88;8.13;;;15.70;62.10;;;;;;6201421;28;20395;-80
2023/10/10 07:37:17;;;;;;;23.20;8.23;;;16.40;57.10;;;;;;6202380;28;20054;-81
2023/10/10 07:40:20;;;;;;;44.22;8.70;;;17.10;45.60;;;;;;6249478;28;20052;-81
2023/10/10 07:43:26;;;;;;;25.67;8.02;;;17.60;37.30;;;;;;6231505;28;20132;-82
2023/10/10 07:46:35;;;;;;;34.00;8.60;;;18.50;36.10;;;;;;6199172;28;20069;-80
2023/10/10 07:49:40;;;;;;;31.98;7.35;;;19.50;34.50;;;;;;6199786;28;20062;-82
2023/10/10 07:52:42;;;;;;;18.52;7.88;;;20.10;17.20;;;;;;6249846;28;20057;-81
2023/10/10 07:55:53;;;;;;;14.95;6.78;;;20.50;12.20;;;;;;6225774;28;20045;-80
2023/10/10 07:58:56;;;;;;;15.13;7.47;;;20.90;6.80;;;;;;6226785;28;20132;-80
2023/10/10 08:01:59;;;;;;;13.88;7.03;;;21.30;6.40;;;;;;6226665;28;20562;-75
2023/10/10 08:05:09;;;;;;;15.20;7.00;;;21.70;5.00;;;;;;6249796;28;20481;-77
2023/10/10 08:08:13;;;;;;;12.50;6.45;;;22.30;1.00;;;;;;6201910;28;20150;-74
2023/10/10 08:11:24;;;;;;;12.07;7.20;;;22.70;1.00;;;;;;6249402;28;20397;-75
2023/10/10 08:14:31;;;;;;;11.38;6.28;;;23.00;1.00;;;;;;6230940;28;20049;-77
2023/10/10 08:17:35;;;;;;;12.95;7.03;;;23.20;1.00;;;;;;6200878;28;20073;-74
2023/10/10 08:23:47;;;;;;;11.73;6.70;;;24.10;1.00;;;;;;6226005;28;20180;-74
2023/10/10 08:26:51;;;;;;;12.15;6.30;;;24.20;1.00;;;;;;6249894;28;20053;-74
2023/10/10 08:29:53;;;;;;;14.20;5.70;;;23.70;1.00;;;;;;6216250;28;20597;-76
2023/10/10 08:32:55;;;;;;;12.32;6.32;;;23.30;1.00;;;;;;6248847;28;20080;-76
2023/10/10 08:35:56;;;;;;;12.70;5.78;;;23.40;1.00;;;;;;6225487;28;20405;-74
2023/10/10 08:38:58;;;;;;;14.70;5.82;;;24.00;1.00;;;;;;6248702;28;20167;-75
2023/10/10 08:42:00;;;;;;;13.32;6.05;;;24.70;1.00;;;;;;6225319;28;20046;-80
2023/10/10 08:45:02;;;;;;;10.10;5.75;;;25.30;1.00;;;;;;6228753;28;20084;-80
2023/10/10 08:48:07;;;;;;;12.38;5.55;;;25.60;1.00;;;;;;6249158;28;20052;-77
2023/10/10 08:51:11;;;;;;;10.98;5.47;;;25.60;1.00;;;;;;6200159;28;20403;-77
2023/10/10 08:54:15;;;;;;;13.07;5.43;;;25.50;1.00;;;;;;6247878;28;20135;-78
2023/10/10 08:57:26;;;;;;;10.20;4.80;;;25.20;1.00;;;;;;6222761;28;20136;-77
2023/10/10 09:00:28;;;;;;;11.68;5.50;;;25.00;1.00;;;;;;6244270;28;20071;-77
2023/10/10 09:03:34;;;;;;;12.07;4.80;;;25.10;1.00;;;;;;6199650;28;20054;-81
2023/10/10 09:06:45;;;;;;;17.50;4.90;;;25.20;1.00;;;;;;6199974;28;20050;-80
2023/10/10 09:09:54;;;;;;;9.20;4.30;;;25.50;1.00;;;;;;6248358;28;20045;-81
2023/10/10 09:12:58;;;;;;;8.90;4.25;;;25.20;1.00;;;;;;6202542;28;20084;-77
2023/10/10 09:16:00;;;;;;;9.05;4.35;;;25.60;1.00;;;;;;6248799;28;20053;-78
2023/10/10 09:19:02;;;;;;;14.20;4.75;;;25.70;1.00;;;;;;6224447;28;20058;-76
2023/10/10 09:22:12;;;;;;;12.55;4.38;;;26.00;1.00;;;;;;6248891;28;20053;-78
2023/10/10 09:25:18;;;;;;;8.90;4.25;;;26.50;1.00;;;;;;6199629;28;20050;-81
2023/10/10 09:28:20;;;;;;;10.35;4.22;;;26.80;1.00;;;;;;6214498;28;20076;-82
2023/10/10 09:31:26;;;;;;;13.65;4.22;;;26.70;1.00;;;;;;6224278;28;20112;-80
2023/10/10 09:34:35;;;;;;;8.90;3.63;;;26.80;1.00;;;;;;6199778;28;20061;-76
2023/10/10 09:37:38;;;;;;;8.65;3.90;;;27.30;1.00;;;;;;6248327;28;20052;-83
2023/10/10 09:40:40;;;;;;;8.23;3.90;;;27.40;1.00;;;;;;6225035;28;20050;-89
2023/10/10 09:43:49;;;;;;;9.43;3.75;;;27.70;1.00;;;;;;6234814;28;20425;-87
2023/10/10 09:50:29;;;;;;;6.93;3.55;;;27.60;1.00;;;;;;6200850;28;20050;-85
2023/10/10 09:53:23;;;;;;;13.40;3.90;;;27.60;1.00;;;;;;6199374;28;20058;-82
2023/10/10 09:56:25;;;;;;;6.60;3.80;;;27.10;1.00;;;;;;6246340;28;20049;-81
2023/10/10 09:59:30;;;;;;;9.55;3.90;;;26.70;1.00;;;;;;6218284;28;20081;-82
2023/10/10 10:02:42;;;;;;;8.65;3.78;;;27.10;1.00;;;;;;6249155;28;20072;-81
2023/10/10 10:05:44;;;;;;;9.52;3.88;;;27.70;1.00;;;;;;6223201;28;20462;-80
2023/10/10 10:08:46;;;;;;;9.75;3.90;;;28.30;1.00;;;;;;6247395;28;20072;-77
2023/10/10 10:11:47;;;;;;;8.93;3.85;;;28.40;1.00;;;;;;6223956;28;20057;-78
2023/10/10 10:14:50;;;;;;;16.17;4.30;;;28.60;1.00;;;;;;6241798;28;20500;-79
2023/10/10 10:17:54;;;;;;;7.90;3.60;;;28.80;1.00;;;;;;6247436;28;20049;-80
2023/10/10 10:24:28;;;;;;;11.10;3.60;;;29.10;1.00;;;;;;6190104;28;20050;-82
2023/10/10 10:27:39;;;;;;;7.03;3.33;;;29.10;1.00;;;;;;6244967;28;20056;-82
2023/10/10 10:30:47;;;;;;;10.93;3.45;;;28.90;1.00;;;;;;6223130;28;20053;-79
2023/10/10 10:33:52;;;;;;;7.15;3.35;;;28.80;1.00;;;;;;6198783;28;20060;-81
2023/10/10 10:36:55;;;;;;;27.80;3.92;;;29.20;1.00;;;;;;6247522;28;20420;-80
2023/10/10 10:40:23;;;;;;;7.80;3.60;;;29.40;1.00;;;;;;6222154;28;20054;-85
2023/10/10 10:43:32;;;;;;;7.78;3.20;;;30.10;1.00;;;;;;6216835;28;20053;-81
2023/10/10 10:46:33;;;;;;;6.30;3.20;;;29.90;1.00;;;;;;6202837;28;20055;-81
2023/10/10 10:49:35;;;;;;;7.65;3.20;;;29.60;1.00;;;;;;6250839;28;20046;-80
2023/10/10 10:52:43;;;;;;;8.63;3.03;;;29.70;1.00;;;;;;6227840;28;20072;-81
2023/10/10 10:55:52;;;;;;;20.75;4.10;;;29.70;1.00;;;;;;6203227;28;20049;-83
2023/10/10 11:01:56;;;;;;;6.22;2.88;;;30.40;1.00;;;;;;6251643;28;20037;-82
2023/10/10 11:04:58;;;;;;;5.25;2.78;;;30.70;1.00;;;;;;6227316;28;20056;-79
2023/10/10 11:08:11;;;;;;;30.58;4.07;;;30.40;1.00;;;;;;6251438;28;20046;-80
2023/10/10 11:14:33;;;;;;;8.48;2.80;;;30.30;1.00;;;;;;6247170;28;20189;-80
2023/10/10 11:17:38;;;;;;;10.68;3.28;;;29.90;1.00;;;;;;6227277;28;20046;-83
2023/10/10 11:21:06;;;;;;;5.75;2.78;;;29.90;1.00;;;;;;6249760;28;20046;-81
2023/10/10 11:24:08;;;;;;;9.85;3.20;;;30.00;1.00;;;;;;6202766;28;20050;-80
2023/10/10 11:30:24;;;;;;;6.65;3.03;;;29.80;1.00;;;;;;6226033;28;20049;-79
2023/10/10 11:33:26;;;;;;;7.05;3.38;;;29.90;1.00;;;;;;6202444;28;20116;-83
2023/10/10 11:36:37;;;;;;;10.75;3.63;;;29.70;1.00;;;;;;6250206;28;20072;-79
2023/10/10 11:39:47;;;;;;;8.50;3.10;;;29.10;1.00;;;;;;6202187;28;20061;-79
2023/10/10 11:42:48;;;;;;;7.88;3.13;;;29.30;1.00;;;;;;6245103;28;20481;-79
2023/10/10 11:45:51;;;;;;;8.38;3.45;;;29.30;1.00;;;;;;6243577;28;20100;-79
2023/10/10 11:48:55;;;;;;;8.52;3.60;;;29.80;1.00;;;;;;6226483;28;20049;-79
2023/10/10 11:51:56;;;;;;;13.07;3.78;;;29.40;1.00;;;;;;6250568;28;20095;-79
2023/10/10 11:55:00;;;;;;;5.75;3.00;;;29.80;1.00;;;;;;6225575;28;20050;-81
2023/10/10 11:58:08;;;;;;;12.50;3.72;;;29.90;1.00;;;;;;6240855;28;20042;-80
2023/10/10 12:01:12;;;;;;;15.45;3.53;;;30.10;1.00;;;;;;6226179;28;20058;-80
2023/10/10 12:04:32;;;;;;;9.93;3.40;;;30.20;1.00;;;;;;6251491;28;20195;-80
2023/10/10 12:07:40;;;;;;;6.60;3.08;;;29.30;1.00;;;;;;6200375;28;20050;-80
2023/10/10 12:10:47;;;;;;;11.75;3.47;;;29.50;1.00;;;;;;6202507;28;20129;-83
2023/10/10 12:13:50;;;;;;;;;;;29.90;1.00;;;;;;6229200;28;20053;-80
2023/10/10 12:16:52;;;;;;;8.48;3.25;;;29.80;1.00;;;;;;6230682;28;19999;-82
2023/10/10 12:19:56;;;;;;;8.18;3.50;;;29.10;1.00;;;;;;6249640;28;20505;-80
2023/10/10 12:22:58;;;;;;;16.30;3.67;;;29.60;1.00;;;;;;6227045;28;20053;-82
2023/10/10 12:26:00;;;;;;;8.88;3.65;;;29.80;1.00;;;;;;6249495;28;20060;-80
2023/10/10 12:29:02;;;;;;;6.78;3.30;;;29.80;1.00;;;;;;6236627;28;20136;-80
2023/10/10 12:32:14;;;;;;;17.92;3.72;;;29.80;1.00;;;;;;6226347;28;20456;-81
2023/10/10 12:35:17;;;;;;;9.10;3.55;;;29.70;1.00;;;;;;6201364;28;20050;-80
2023/10/10 12:38:22;;;;;;;8.60;3.30;;;30.30;1.00;;;;;;6248869;28;20052;-81
2023/10/10 12:41:24;;;;;;;5.30;2.95;;;30.60;1.00;;;;;;6225074;28;20073;-76
2023/10/10 12:44:25;;;;;;;75.47;5.60;;;30.30;1.00;;;;;;6239810;28;20054;-78
2023/10/10 12:47:31;;;;;;;19.90;3.83;;;29.40;1.00;;;;;;6224622;28;20050;-78
2023/10/10 12:50:32;;;;;;;7.60;3.00;;;29.10;1.00;;;;;;6200436;28;20069;-78
2023/10/10 12:53:39;;;;;;;6.63;3.25;;;29.10;1.00;;;;;;6248042;28;20408;-77
2023/10/10 12:56:48;;;;;;;8.00;3.67;;;29.20;1.00;;;;;;6200201;28;20076;-77
2023/10/10 12:59:51;;;;;;;10.07;3.55;;;29.40;1.00;;;;;;6193606;28;20057;-76
2023/10/10 13:02:55;;;;;;;7.28;3.20;;;29.30;1.00;;;;;;6247964;28;20045;-77
2023/10/10 13:06:00;;;;;;;7.43;3.65;;;29.50;1.00;;;;;;6224937;28;20050;-79
2023/10/10 13:09:05;;;;;;;11.02;3.58;;;29.50;1.00;;;;;;6248912;28;20045;-77
2023/10/10 13:12:07;;;;;;;10.00;3.70;;;29.20;1.00;;;;;;6224741;28;20064;-77
2023/10/10 13:18:28;;;;;;;9.73;3.85;;;29.20;1.00;;;;;;6224913;28;20057;-76
2023/10/10 13:21:30;;;;;;;9.15;3.88;;;28.80;1.00;;;;;;6247895;28;20045;-76
2023/10/10 13:24:32;;;;;;;9.48;3.60;;;28.60;1.00;;;;;;6248195;28;20477;-76
2023/10/10 13:27:33;;;;;;;15.65;3.58;;;28.30;1.00;;;;;;6199758;28;20050;-75
2023/10/10 13:30:36;;;;;;;14.68;3.78;;;28.40;1.00;;;;;;6246675;28;20049;-76
2023/10/10 13:33:39;;;;;;;7.47;3.58;;;28.40;1.00;;;;;;6198281;28;20490;-78
2023/10/10 13:36:42;;;;;;;13.82;4.22;;;28.40;1.00;;;;;;6247925;28;20064;-76
2023/10/10 13:39:43;;;;;;;10.38;4.00;;;28.60;1.00;;;;;;6223734;28;20057;-76
2023/10/10 13:42:46;;;;;;;7.95;3.55;;;28.90;1.00;;;;;;6237756;28;20132;-77
2023/10/10 13:45:48;;;;;;;8.73;4.20;;;28.90;1.00;;;;;;6240058;28;20061;-78
2023/10/10 13:48:50;;;;;;;7.85;3.90;;;28.30;1.00;;;;;;6223886;28;20122;-76
2023/10/10 13:51:52;;;;;;;11.18;4.00;;;28.20;1.00;;;;;;6247340;28;20140;-76
2023/10/10 13:54:54;;;;;;;6.55;3.80;;;28.00;1.00;;;;;;6223464;28;20050;-75
2023/10/10 13:57:56;;;;;;;8.23;3.85;;;28.10;1.00;;;;;;6232613;28;20601;-75
2023/10/10 14:04:25;;;;;;;13.18;4.25;;;27.00;1.00;;;;;;6198476;28;20083;-74
2023/10/10 14:07:27;;;;;;;9.73;3.95;;;26.50;1.00;;;;;;6198518;28;20066;-73
2023/10/10 14:10:29;;;;;;;13.55;4.43;;;26.30;1.00;;;;;;6197219;28;20050;-76
2023/10/10 14:13:32;;;;;;;53.20;6.53;;;26.10;1.00;;;;;;6217029;28;20527;-76
2023/10/10 14:16:34;;;;;;;15.85;4.40;;;26.00;1.00;;;;;;6223862;28;20053;-77
2023/10/10 14:19:36;;;;;;;12.63;4.15;;;25.90;1.00;;;;;;6227703;28;20077;-78
2023/10/10 14:22:38;;;;;;;19.08;4.15;;;26.10;1.00;;;;;;6202802;28;20057;-82
2023/10/10 14:26:17;;;;;;;;;;;26.20;1.00;;;;;;6204369;28;20077;-76
2023/10/10 14:29:19;;;;;;;10.18;4.43;;;25.90;1.00;;;;;;6227718;28;20284;-80
2023/10/10 14:32:21;;;;;;;13.93;3.90;;;25.70;1.00;;;;;;6252213;28;20231;-80
2023/10/10 14:35:39;;;;;;;9.48;3.97;;;25.80;1.00;;;;;;6204030;28;20062;-78
2023/10/10 14:38:49;;;;;;;11.93;4.20;;;25.90;1.00;;;;;;6251958;28;20045;-84
2023/10/10 14:41:51;;;;;;;11.10;4.07;;;25.80;1.00;;;;;;6202895;28;20046;-80
2023/10/10 14:44:53;;;;;;;10.45;4.10;;;25.20;1.00;;;;;;6234948;28;20457;-78
2023/10/10 14:47:55;;;;;;;9.32;4.45;;;24.70;1.00;;;;;;6251270;28;20061;-80
2023/10/10 14:50:58;;;;;;;8.77;4.07;;;24.40;1.00;;;;;;6228642;28;20089;-79
2023/10/10 14:54:06;;;;;;;10.98;4.25;;;24.30;1.00;;;;;;6251506;28;20069;-78
2023/10/10 14:57:21;;;;;;;14.30;4.40;;;24.40;1.00;;;;;;6202982;28;20489;-78
2023/10/10 15:00:23;;;;;;;11.02;3.85;;;24.20;1.00;;;;;;6245892;28;20056;-77
2023/10/10 15:03:26;;;;;;;8.70;4.40;;;23.90;1.00;;;;;;6227532;28;20115;-78
2023/10/10 15:06:28;;;;;;;12.52;4.53;;;23.80;1.00;;;;;;6251355;28;20134;-77
2023/10/10 15:09:30;;;;;;;8.85;4.03;;;23.70;1.00;;;;;;6227302;28;20100;-78
2023/10/10 15:12:33;;;;;;;8.85;4.65;;;23.70;1.00;;;;;;6248389;28;20056;-78
2023/10/10 15:15:34;;;;;;;14.82;5.25;;;23.60;1.00;;;;;;6225539;28;20054;-82
2023/10/10 15:18:41;;;;;;;31.25;5.72;;;23.40;1.00;;;;;;6202431;28;20065;-83
2023/10/10 15:21:48;;;;;;;12.80;4.65;;;23.50;1.00;;;;;;6250886;28;20046;-82
2023/10/10 15:24:50;;;;;;;8.55;4.63;;;23.40;1.00;;;;;;6226973;28;20046;-82
2023/10/10 15:27:54;;;;;;;11.40;4.90;;;23.20;1.00;;;;;;6244639;28;20046;-82
2023/10/10 15:30:57;;;;;;;11.93;4.82;;;23.10;1.00;;;;;;6225931;28;20053;-81
2023/10/10 15:33:59;;;;;;;15.20;4.63;;;23.00;1.00;;;;;;6250973;28;20049;-81
2023/10/10 15:37:09;;;;;;;22.60;4.97;;;22.80;1.00;;;;;;6227580;28;20057;-85
2023/10/10 15:40:13;;;;;;;9.88;5.40;;;22.70;1.00;;;;;;6202303;28;20061;-82
2023/10/10 15:43:15;;;;;;;11.80;4.63;;;22.60;1.00;;;;;;6234083;28;20038;-83
2023/10/10 15:46:34;;;;;;;10.20;5.15;;;22.40;1.00;;;;;;6226826;28;20064;-81
2023/10/10 15:49:35;;;;;;;22.73;5.38;;;22.30;1.00;;;;;;6250340;28;20092;-80
2023/10/10 15:52:38;;;;;;;14.18;5.05;;;22.10;1.00;;;;;;6227013;28;20188;-80
2023/10/10 15:55:42;;;;;;;8.50;4.78;;;22.00;1.00;;;;;;6250829;28;20504;-81
2023/10/10 15:58:49;;;;;;;15.60;5.45;;;22.00;1.00;;;;;;6236591;28;20049;-80
2023/10/10 16:01:51;;;;;;;11.57;5.93;;;21.90;1.00;;;;;;6201779;28;20047;-82
2023/10/10 16:04:53;;;;;;;12.18;5.50;;;21.90;1.00;;;;;;6249655;28;20052;-82
2023/10/10 16:07:58;;;;;;;11.93;5.28;;;21.80;1.00;;;;;;6226251;28;20049;-84
2023/10/10 16:11:12;;;;;;;22.63;5.78;;;21.70;1.00;;;;;;6200956;28;20046;-82
2023/10/10 16:14:14;;;;;;;12.05;5.07;;;21.60;1.00;;;;;;6231015;28;20046;-82
2023/10/10 16:17:16;;;;;;;14.40;5.35;;;21.50;1.00;;;;;;6249607;28;20489;-82
2023/10/10 16:20:22;;;;;;;16.08;5.47;;;21.40;1.00;;;;;;6226140;28;20053;-83
2023/10/10 16:23:24;;;;;;;15.13;6.35;;;21.30;1.00;;;;;;6201103;28;20101;-82
2023/10/10 16:26:26;;;;;;;12.50;5.43;;;21.10;1.00;;;;;;6249439;28;20188;-87
2023/10/10 16:29:34;;;;;;;16.27;6.50;;;21.00;1.00;;;;;;6218298;28;20104;-81
2023/10/10 16:32:37;;;;;;;14.57;5.75;;;20.80;1.00;;;;;;6201107;28;20050;-81
2023/10/10 16:35:45;;;;;;;12.65;5.40;;;20.80;1.00;;;;;;6249048;28;20046;-83
2023/10/10 16:38:49;;;;;;;15.60;5.60;;;20.60;1.00;;;;;;6200902;28;20073;-81
2023/10/10 16:41:51;;;;;;;15.88;5.75;;;20.40;1.00;;;;;;6247787;28;20054;-86
2023/10/10 16:44:53;;;;;;;10.35;5.22;;;20.20;1.00;;;;;;6228369;28;20531;-86
2023/10/10 16:47:56;;;;;;;16.27;6.10;;;20.10;1.00;;;;;;6225566;28;20184;-85
2023/10/10 16:51:01;;;;;;;16.27;6.80;;;20.00;1.00;;;;;;6249413;28;20049;-80
2023/10/10 16:54:06;;;;;;;13.95;5.85;;;19.80;2.60;;;;;;6225700;28;20466;-82
2023/10/10 16:57:11;;;;;;;14.93;6.40;;;19.60;4.70;;;;;;6248568;28;20049;-78
2023/10/10 17:00:13;;;;;;;16.35;6.07;;;19.50;8.10;;;;;;6220292;28;20046;-85
2023/10/10 17:03:14;;;;;;;20.63;5.85;;;19.50;8.40;;;;;;6248538;28;20045;-81
2023/10/10 17:06:22;;;;;;;11.73;5.57;;;19.40;9.90;;;;;;6223724;28;20074;-81
2023/10/10 17:09:26;;;;;;;13.10;5.95;;;19.30;11.00;;;;;;6200106;28;20051;-81
2023/10/10 17:12:27;;;;;;;57.70;8.10;;;19.10;12.90;;;;;;6246855;28;20072;-80
2023/10/10 17:15:29;;;;;;;13.70;6.43;;;19.00;13.80;;;;;;6220302;28;20049;-82
2023/10/10 17:18:31;;;;;;;11.00;6.10;;;19.00;15.10;;;;;;6200829;28;20055;-83
2023/10/10 17:21:34;;;;;;;14.45;6.20;;;18.90;15.60;;;;;;6265145;28;20053;-81
2023/10/10 17:24:35;;;;;;;22.70;7.55;;;18.90;17.10;;;;;;6226503;28;20050;-80
2023/10/10 17:27:38;;;;;;;13.20;6.63;;;18.80;18.70;;;;;;6244261;28;20076;-81
2023/10/10 17:30:40;;;;;;;15.95;6.22;;;18.70;18.90;;;;;;6224587;28;20065;-84
2023/10/10 17:33:42;;;;;;;10.75;5.72;;;18.70;17.90;;;;;;6214528;28;20064;-81
2023/10/10 17:36:44;;;;;;;14.80;5.88;;;18.60;20.00;;;;;;6246270;28;20136;-86
2023/10/10 17:39:48;;;;;;;11.45;5.70;;;18.50;22.10;;;;;;6223249;28;20096;-81
2023/10/10 17:42:50;;;;;;;16.70;6.13;;;18.40;24.20;;;;;;6240540;28;20124;-81
2023/10/10 17:45:54;;;;;;;11.85;5.45;;;18.30;25.40;;;;;;6241074;28;20053;-81
2023/10/10 17:48:57;;;;;;;14.07;5.75;;;18.30;25.20;;;;;;6223886;28;20046;-77
2023/10/10 17:52:00;;;;;;;12.82;5.15;;;18.30;24.80;;;;;;6247496;28;20053;-81
2023/10/10 17:55:02;;;;;;;10.27;5.35;;;18.20;23.90;;;;;;6224694;28;20049;-81
2023/10/10 17:58:03;;;;;;;11.70;5.88;;;18.20;24.30;;;;;;6233788;28;20064;-80
2023/10/10 18:01:05;;;;;;;12.70;6.00;;;18.20;25.30;;;;;;6223233;28;20481;-81
2023/10/10 18:04:07;;;;;;;12.27;6.07;;;18.10;26.80;;;;;;6246032;28;20052;-81
2023/10/10 18:07:12;;;;;;;13.13;5.75;;;18.00;27.70;;;;;;6223766;28;20513;-81
2023/10/10 18:10:14;;;;;;;14.88;5.88;;;18.10;27.10;;;;;;6246713;28;20045;-80
2023/10/10 18:13:16;;;;;;;15.75;6.60;;;18.00;27.50;;;;;;6227208;28;20049;-79
2023/10/10 18:16:21;;;;;;;11.20;5.30;;;17.90;29.30;;;;;;6224094;28;20042;-80
2023/10/10 18:19:26;;;;;;;14.07;6.20;;;17.90;28.50;;;;;;6198820;28;20134;-75
2023/10/10 18:22:29;;;;;;;13.25;6.10;;;17.90;30.70;;;;;;6247542;28;20052;-76
2023/10/10 18:25:35;;;;;;;14.50;6.32;;;17.80;33.10;;;;;;6198727;28;20061;-78